createdAt,value
2023-03-02T00:02:02.714Z,92.76
2023-03-02T00:04:35.100Z,92.79
2023-03-02T00:07:06.312Z,93.63
2023-03-02T00:09:37.665Z,93.62
2023-03-02T00:12:08.046Z,93.10
2023-03-02T00:14:38.858Z,95.28
2023-03-02T00:17:08.419Z,97.95
2023-03-02T00:19:37.212Z,96.50
2023-03-02T00:22:06.010Z,96.97
2023-03-02T00:24:35.340Z,96.88
2023-03-02T00:27:05.716Z,96.73
2023-03-02T00:29:35.523Z,96.06
2023-03-02T00:32:06.953Z,96.72
2023-03-02T00:34:35.901Z,97.41
2023-03-02T00:37:05.442Z,97.30
2023-03-02T00:39:34.139Z,98.26
2023-03-02T00:42:02.575Z,99.47
2023-03-02T00:44:31.501Z,99.16
2023-03-02T00:47:00.444Z,99.26
2023-03-02T00:49:31.274Z,98.60
2023-03-02T00:51:59.933Z,98.65
2023-03-02T00:54:28.948Z,98.81
2023-03-02T00:56:58.396Z,98.65
2023-03-02T00:59:30.313Z,99.56
2023-03-02T01:02:01.885Z,100.00
2023-03-02T01:04:35.932Z,100.00
2023-03-02T01:07:07.587Z,100.00
2023-03-02T01:09:36.225Z,100.00
2023-03-02T01:12:05.896Z,100.00
2023-03-02T01:14:34.639Z,100.00
2023-03-02T01:17:03.538Z,100.00
2023-03-02T01:19:34.539Z,100.00
2023-03-02T01:22:03.981Z,100.00
2023-03-02T01:24:33.908Z,100.00
2023-03-02T01:27:11.921Z,100.00
2023-03-02T01:29:41.107Z,100.00
2023-03-02T01:32:11.868Z,100.00
2023-03-02T01:34:41.718Z,100.00
2023-03-02T01:37:10.638Z,100.00
2023-03-02T01:39:40.097Z,100.00
2023-03-02T01:42:09.371Z,100.00
2023-03-02T01:44:42.530Z,100.00
2023-03-02T01:47:23.467Z,100.00
2023-03-02T01:49:58.679Z,100.00
2023-03-02T01:52:29.008Z,100.00
2023-03-02T01:55:00.670Z,100.00
2023-03-02T01:57:33.151Z,100.00
2023-03-02T02:00:11.064Z,100.00
2023-03-02T02:02:42.943Z,100.00
2023-03-02T02:05:17.370Z,100.00
2023-03-02T02:07:46.392Z,100.00
2023-03-02T02:10:16.676Z,100.00
2023-03-02T02:12:45.507Z,100.00
2023-03-02T02:15:14.679Z,100.00
2023-03-02T02:17:44.160Z,100.00
2023-03-02T02:20:25.569Z,100.00
2023-03-02T02:23:11.255Z,100.00
2023-03-02T02:25:50.078Z,100.00
2023-03-02T02:28:24.588Z,100.00
2023-03-02T02:31:08.595Z,100.00
2023-03-02T02:33:41.386Z,100.00
2023-03-02T02:36:17.450Z,100.00
2023-03-02T02:38:49.657Z,100.00
2023-03-02T02:41:24.066Z,100.00
2023-03-02T02:43:56.133Z,100.00
2023-03-02T02:46:26.937Z,100.00
2023-03-02T02:48:56.062Z,100.00
2023-03-02T02:51:29.152Z,100.00
2023-03-02T02:54:01.658Z,100.00
2023-03-02T02:56:34.584Z,100.00
2023-03-02T02:59:09.356Z,100.00
2023-03-02T03:01:37.887Z,100.00
2023-03-02T03:04:08.040Z,100.00
2023-03-02T03:06:42.750Z,100.00
2023-03-02T03:09:12.809Z,100.00
2023-03-02T03:11:45.436Z,100.00
2023-03-02T03:14:17.138Z,100.00
2023-03-02T03:16:48.342Z,100.00
2023-03-02T03:19:21.497Z,100.00
2023-03-02T03:21:53.443Z,100.00
2023-03-02T03:24:22.979Z,100.00
2023-03-02T03:26:51.755Z,100.00
2023-03-02T03:29:24.530Z,100.00
2023-03-02T03:31:53.665Z,100.00
2023-03-02T03:34:24.357Z,100.00
2023-03-02T03:36:55.167Z,100.00
2023-03-02T03:39:23.817Z,100.00
2023-03-02T03:41:52.723Z,100.00
2023-03-02T03:44:23.375Z,100.00
2023-03-02T03:46:52.048Z,100.00
2023-03-02T03:49:22.041Z,100.00
2023-03-02T03:51:52.778Z,100.00
2023-03-02T03:54:22.787Z,100.00
2023-03-02T03:56:52.410Z,100.00
2023-03-02T03:59:24.776Z,100.00
2023-03-02T04:01:55.505Z,100.00
2023-03-02T04:04:27.906Z,100.00
2023-03-02T04:06:56.707Z,100.00
2023-03-02T04:09:26.276Z,100.00
2023-03-02T04:11:57.886Z,100.00
2023-03-02T04:14:28.831Z,100.00
2023-03-02T04:16:58.413Z,100.00
2023-03-02T04:19:27.511Z,100.00
2023-03-02T04:21:59.180Z,100.00
2023-03-02T04:24:28.108Z,100.00
2023-03-02T04:26:58.391Z,100.00
2023-03-02T04:29:32.837Z,100.00
2023-03-02T04:32:01.551Z,100.00
2023-03-02T04:34:30.591Z,100.00
2023-03-02T04:36:59.061Z,100.00
2023-03-02T04:39:27.877Z,100.00
2023-03-02T04:41:57.114Z,100.00
2023-03-02T04:44:25.568Z,100.00
2023-03-02T04:46:55.521Z,100.00
2023-03-02T04:49:24.103Z,100.00
2023-03-02T04:51:53.325Z,100.00
2023-03-02T04:54:24.984Z,100.00
2023-03-02T04:56:56.112Z,100.00
2023-03-02T04:59:27.363Z,100.00
2023-03-02T05:02:00.486Z,100.00
2023-03-02T05:04:31.751Z,100.00
2023-03-02T05:07:02.169Z,100.00
2023-03-02T05:09:31.083Z,100.00
2023-03-02T05:12:02.932Z,100.00
2023-03-02T05:14:32.609Z,100.00
2023-03-02T05:17:03.572Z,100.00
2023-03-02T05:19:33.393Z,100.00
2023-03-02T05:22:01.930Z,100.00
2023-03-02T05:24:30.735Z,100.00
2023-03-02T05:27:00.152Z,100.00
2023-03-02T05:29:29.250Z,100.00
2023-03-02T05:31:58.142Z,100.00
2023-03-02T05:34:29.379Z,100.00
2023-03-02T05:37:00.839Z,100.00
2023-03-02T05:39:30.270Z,100.00
2023-03-02T05:41:59.816Z,100.00
2023-03-02T05:44:28.869Z,100.00
2023-03-02T05:46:58.221Z,100.00
2023-03-02T05:49:29.017Z,100.00
2023-03-02T05:51:57.269Z,100.00
2023-03-02T05:54:26.065Z,100.00
2023-03-02T05:56:54.351Z,100.00
2023-03-02T05:59:23.546Z,100.00
2023-03-02T06:01:55.180Z,100.00
2023-03-02T06:04:24.508Z,100.00
2023-03-02T06:06:54.968Z,100.00
2023-03-02T06:09:23.953Z,100.00
2023-03-02T06:11:53.958Z,100.00
2023-03-02T06:14:22.319Z,100.00
2023-03-02T06:16:51.699Z,100.00
2023-03-02T06:19:20.020Z,100.00
2023-03-02T06:21:51.897Z,100.00
2023-03-02T06:24:23.404Z,100.00
2023-03-02T06:26:54.370Z,100.00
2023-03-02T06:29:23.168Z,100.00
2023-03-02T06:31:52.109Z,100.00
2023-03-02T06:34:21.208Z,100.00
2023-03-02T06:36:50.388Z,100.00
2023-03-02T06:39:18.714Z,100.00
2023-03-02T06:41:50.153Z,100.00
2023-03-02T06:44:20.234Z,100.00
2023-03-02T06:46:51.595Z,100.00
2023-03-02T06:49:20.341Z,100.00
2023-03-02T06:51:49.196Z,100.00
2023-03-02T06:54:17.935Z,99.86
2023-03-02T06:56:48.095Z,99.24
2023-03-02T06:59:17.559Z,99.68
2023-03-02T07:01:47.276Z,98.71
2023-03-02T07:04:16.112Z,97.03
2023-03-02T07:06:44.694Z,96.49
2023-03-02T07:09:13.380Z,96.40
2023-03-02T07:11:42.172Z,97.19
2023-03-02T07:14:12.009Z,95.74
2023-03-02T07:16:40.853Z,94.12
2023-03-02T07:19:13.621Z,93.24
2023-03-02T07:21:42.360Z,91.42
2023-03-02T07:24:12.085Z,91.91
2023-03-02T07:26:40.770Z,91.94
2023-03-02T07:29:10.093Z,90.08
2023-03-02T07:31:40.401Z,89.41
2023-03-02T07:34:09.214Z,89.17
2023-03-02T07:36:39.774Z,87.11
2023-03-02T07:39:08.418Z,86.78
2023-03-02T07:41:38.333Z,85.45
2023-03-02T07:44:07.870Z,85.12
2023-03-02T07:46:36.565Z,83.72
2023-03-02T07:49:07.024Z,84.87
2023-03-02T07:51:35.658Z,83.93
2023-03-02T07:54:05.193Z,82.68
2023-03-02T07:56:34.394Z,83.23
2023-03-02T07:59:04.475Z,80.80
2023-03-02T08:01:34.392Z,78.93
2023-03-02T08:04:04.787Z,78.54
2023-03-02T08:06:37.158Z,78.54
2023-03-02T08:09:07.957Z,78.17
2023-03-02T08:11:36.746Z,78.23
2023-03-02T08:14:06.211Z,75.83
2023-03-02T08:16:35.631Z,75.28
2023-03-02T08:19:05.319Z,74.53
2023-03-02T08:21:35.577Z,75.85
2023-03-02T08:24:05.125Z,74.05
2023-03-02T08:26:34.875Z,73.69
2023-03-02T08:29:03.561Z,74.86
2023-03-02T08:31:34.197Z,72.90
2023-03-02T08:34:02.962Z,72.20
2023-03-02T08:36:32.055Z,72.73
2023-03-02T08:39:03.034Z,71.02
2023-03-02T08:41:32.462Z,70.39
2023-03-02T08:44:01.397Z,70.13
2023-03-02T08:46:33.752Z,69.31
2023-03-02T08:49:03.635Z,68.79
2023-03-02T08:51:32.777Z,68.62
2023-03-02T08:54:03.048Z,68.83
2023-03-02T08:56:34.224Z,69.06
2023-03-02T08:59:04.952Z,68.44
2023-03-02T09:01:36.041Z,67.91
2023-03-02T09:04:07.459Z,66.92
2023-03-02T09:06:37.902Z,66.65
2023-03-02T09:09:09.440Z,66.27
2023-03-02T09:11:38.432Z,65.81
2023-03-02T09:14:09.292Z,65.81
2023-03-02T09:16:38.193Z,64.92
2023-03-02T09:19:07.625Z,64.89
2023-03-02T09:21:36.387Z,65.51
2023-03-02T09:24:05.150Z,65.00
2023-03-02T09:26:36.094Z,64.18
2023-03-02T09:29:04.842Z,64.10
2023-03-02T09:31:34.093Z,63.91
2023-03-02T09:34:03.564Z,63.12
2023-03-02T09:36:33.097Z,61.77
2023-03-02T09:39:04.156Z,61.70
2023-03-02T09:42:01.904Z,61.72
2023-03-02T09:45:21.450Z,60.56
2023-03-02T09:48:02.420Z,60.44
2023-03-02T09:50:34.296Z,59.96
2023-03-02T09:53:21.430Z,59.53
2023-03-02T09:55:55.608Z,59.56
2023-03-02T09:58:30.340Z,59.61
2023-03-02T10:01:02.266Z,59.51
2023-03-02T10:03:39.262Z,59.49
2023-03-02T10:06:07.663Z,59.12
2023-03-02T10:08:37.912Z,59.04
2023-03-02T10:11:15.569Z,58.96
2023-03-02T10:13:50.993Z,58.34
2023-03-02T10:16:32.770Z,58.13
2023-03-02T10:19:12.253Z,57.75
2023-03-02T10:21:43.540Z,57.08
2023-03-02T10:24:23.042Z,56.91
2023-03-02T10:26:55.120Z,57.88
2023-03-02T10:29:45.458Z,56.76
2023-03-02T10:32:23.585Z,56.71
2023-03-02T10:34:56.003Z,55.85
2023-03-02T10:37:26.965Z,55.94
2023-03-02T10:39:56.139Z,56.89
2023-03-02T10:42:30.405Z,55.65
2023-03-02T10:45:09.963Z,55.53
2023-03-02T10:47:38.958Z,55.32
2023-03-02T10:50:23.838Z,55.31
2023-03-02T10:52:59.968Z,55.15
2023-03-02T10:55:29.533Z,54.59
2023-03-02T10:58:03.542Z,54.23
2023-03-02T11:00:34.064Z,53.90
2023-03-02T11:03:04.383Z,54.57
2023-03-02T11:05:35.618Z,54.29
2023-03-02T11:08:06.464Z,54.25
2023-03-02T11:10:38.346Z,54.07
2023-03-02T11:13:19.804Z,54.26
2023-03-02T11:15:51.811Z,52.89
2023-03-02T11:18:27.956Z,53.77
2023-03-02T11:21:00.554Z,53.22
2023-03-02T11:23:37.997Z,52.63
2023-03-02T11:26:15.334Z,52.44
2023-03-02T11:28:52.931Z,52.61
2023-03-02T11:31:40.264Z,52.32
2023-03-02T11:34:18.725Z,52.66
2023-03-02T11:37:01.127Z,51.93
2023-03-02T11:39:46.527Z,51.78
2023-03-02T11:42:32.275Z,51.93
2023-03-02T11:45:05.070Z,51.76
2023-03-02T11:47:38.479Z,51.77
2023-03-02T11:50:12.111Z,51.59
2023-03-02T11:52:46.916Z,52.41
2023-03-02T11:55:20.848Z,51.48
2023-03-02T11:57:54.419Z,51.25
2023-03-02T12:00:31.931Z,51.82
2023-03-02T12:03:05.532Z,51.18
2023-03-02T12:05:37.824Z,50.71
2023-03-02T12:08:09.220Z,51.03
2023-03-02T12:10:41.620Z,50.79
2023-03-02T12:13:21.085Z,50.92
2023-03-02T12:15:52.544Z,50.76
2023-03-02T12:18:46.816Z,51.13
2023-03-02T12:21:19.150Z,50.48
2023-03-02T12:24:01.681Z,50.55
2023-03-02T12:26:37.005Z,50.84
2023-03-02T12:29:23.702Z,50.53
2023-03-02T12:31:55.082Z,49.79
2023-03-02T12:34:41.447Z,50.44
2023-03-02T12:37:18.938Z,50.35
2023-03-02T12:40:17.697Z,50.08
2023-03-02T12:43:01.521Z,49.79
2023-03-02T12:45:43.661Z,49.70
2023-03-02T12:48:26.802Z,49.87
2023-03-02T12:51:05.017Z,49.60
2023-03-02T12:53:34.162Z,49.70
2023-03-02T12:56:02.837Z,49.99
2023-03-02T12:58:32.921Z,49.81
2023-03-02T13:01:06.209Z,49.79
2023-03-02T13:03:35.525Z,50.06
2023-03-02T13:06:16.321Z,49.29
2023-03-02T13:08:48.638Z,49.23
2023-03-02T13:11:31.730Z,49.43
2023-03-02T13:14:01.580Z,49.96
2023-03-02T13:16:34.125Z,49.09
2023-03-02T13:19:06.058Z,49.09
2023-03-02T13:21:39.158Z,49.58
2023-03-02T13:24:28.448Z,49.31
2023-03-02T13:27:01.245Z,48.86
2023-03-02T13:29:39.865Z,48.76
2023-03-02T13:32:20.781Z,49.01
2023-03-02T13:34:52.473Z,48.93
2023-03-02T13:37:29.359Z,49.39
2023-03-02T13:40:00.092Z,49.34
2023-03-02T13:42:36.181Z,49.00
2023-03-02T13:45:23.173Z,48.95
2023-03-02T13:47:51.861Z,49.39
2023-03-02T13:50:23.891Z,49.30
2023-03-02T13:52:55.564Z,48.90
2023-03-02T13:55:25.379Z,48.87
2023-03-02T13:57:56.009Z,49.37
2023-03-02T14:00:33.100Z,49.36
2023-03-02T14:03:02.580Z,48.71
2023-03-02T14:05:33.689Z,48.96
2023-03-02T14:08:04.382Z,49.16
2023-03-02T14:10:35.225Z,49.13
2023-03-02T14:13:07.723Z,49.03
2023-03-02T14:15:41.906Z,48.60
2023-03-02T14:18:26.698Z,49.25
2023-03-02T14:20:55.410Z,49.06
2023-03-02T14:23:27.913Z,48.89
2023-03-02T14:25:58.597Z,49.16
2023-03-02T14:28:32.184Z,48.95
2023-03-02T14:31:01.432Z,49.36
2023-03-02T14:33:32.291Z,49.24
2023-03-02T14:36:02.614Z,49.33
2023-03-02T14:38:33.880Z,48.83
2023-03-02T14:41:02.973Z,48.74
2023-03-02T14:43:31.856Z,48.99
2023-03-02T14:46:00.526Z,49.02
2023-03-02T14:48:28.851Z,49.06
2023-03-02T14:51:00.834Z,49.34
2023-03-02T14:53:36.439Z,49.94
2023-03-02T14:56:07.359Z,49.72
2023-03-02T14:58:37.489Z,49.39
2023-03-02T15:01:06.396Z,49.38
2023-03-02T15:03:36.602Z,49.35
2023-03-02T15:06:07.608Z,49.61
2023-03-02T15:08:38.587Z,49.30
2023-03-02T15:11:07.550Z,49.49
2023-03-02T15:13:36.769Z,49.54
2023-03-02T15:16:05.398Z,49.60
2023-03-02T15:18:34.762Z,49.89
2023-03-02T15:21:03.528Z,50.07
2023-03-02T15:23:31.860Z,49.94
2023-03-02T15:26:03.015Z,50.22
2023-03-02T15:28:31.804Z,49.91
2023-03-02T15:31:09.405Z,50.31
2023-03-02T15:33:38.171Z,50.14
2023-03-02T15:36:07.807Z,50.57
2023-03-02T15:38:38.372Z,49.90
2023-03-02T15:41:10.454Z,50.17
2023-03-02T15:43:39.837Z,50.25
2023-03-02T15:46:09.541Z,50.17
2023-03-02T15:48:38.787Z,50.43
2023-03-02T15:51:09.183Z,50.94
2023-03-02T15:53:40.497Z,50.54
2023-03-02T15:56:12.158Z,50.85
2023-03-02T15:58:41.313Z,50.65
2023-03-02T16:01:10.770Z,51.42
2023-03-02T16:03:43.153Z,51.26
2023-03-02T16:06:13.424Z,51.83
2023-03-02T16:08:42.012Z,51.30
2023-03-02T16:11:18.737Z,51.45
2023-03-02T16:13:53.664Z,52.43
2023-03-02T16:16:23.179Z,52.34
2023-03-02T16:18:52.737Z,52.32
2023-03-02T16:21:22.314Z,51.87
2023-03-02T16:23:52.852Z,52.53
2023-03-02T16:26:24.375Z,52.64
2023-03-02T16:28:53.201Z,52.61
2023-03-02T16:31:27.384Z,52.49
2023-03-02T16:33:57.894Z,52.70
2023-03-02T16:36:27.892Z,53.09
2023-03-02T16:38:57.895Z,53.74
2023-03-02T16:41:28.154Z,52.85
2023-03-02T16:43:59.216Z,53.60
2023-03-02T16:46:31.245Z,53.73
2023-03-02T16:49:00.523Z,53.92
2023-03-02T16:51:29.027Z,53.75
2023-03-02T16:53:58.148Z,53.58
2023-03-02T16:56:28.858Z,53.50
2023-03-02T16:59:00.130Z,54.21
2023-03-02T17:01:29.527Z,54.57
2023-03-02T17:03:58.308Z,55.18
2023-03-02T17:06:28.142Z,55.59
2023-03-02T17:08:56.970Z,55.98
2023-03-02T17:11:25.566Z,55.68
2023-03-02T17:13:56.515Z,57.06
2023-03-02T17:16:25.419Z,56.84
2023-03-02T17:18:54.834Z,57.27
2023-03-02T17:21:25.895Z,56.82
2023-03-02T17:23:55.005Z,58.21
2023-03-02T17:26:24.111Z,58.70
2023-03-02T17:28:54.652Z,58.63
2023-03-02T17:31:25.966Z,58.92
2023-03-02T17:33:56.849Z,58.78
2023-03-02T17:36:26.025Z,60.64
2023-03-02T17:38:56.025Z,59.55
2023-03-02T17:41:24.828Z,59.36
2023-03-02T17:43:53.830Z,60.02
2023-03-02T17:46:25.676Z,59.96
2023-03-02T17:48:57.669Z,60.79
2023-03-02T17:51:28.549Z,60.63
2023-03-02T17:53:59.375Z,61.11
2023-03-02T17:56:29.138Z,60.78
2023-03-02T17:58:59.249Z,61.54
2023-03-02T18:01:31.026Z,62.14
2023-03-02T18:04:00.389Z,63.81
2023-03-02T18:06:30.141Z,64.99
2023-03-02T18:09:00.603Z,65.67
2023-03-02T18:11:31.439Z,65.26
2023-03-02T18:14:02.479Z,65.58
2023-03-02T18:16:36.518Z,66.23
2023-03-02T18:19:05.711Z,66.32
2023-03-02T18:21:35.592Z,66.38
2023-03-02T18:24:32.074Z,67.76
2023-03-02T18:27:01.769Z,69.44
2023-03-02T18:29:30.282Z,70.18
2023-03-02T18:32:03.216Z,68.95
2023-03-02T18:34:32.345Z,69.64
2023-03-02T18:37:00.921Z,71.40
2023-03-02T18:39:31.976Z,70.16
2023-03-02T18:42:04.099Z,70.79
2023-03-02T18:44:35.784Z,72.00
2023-03-02T18:47:08.266Z,72.85
2023-03-02T18:49:39.096Z,70.97
2023-03-02T18:52:07.989Z,68.24
2023-03-02T18:54:38.166Z,69.00
2023-03-02T18:57:09.872Z,70.99
2023-03-02T18:59:38.763Z,74.77
2023-03-02T19:02:10.694Z,74.95
2023-03-02T19:04:41.489Z,75.83
2023-03-02T19:07:12.142Z,76.73
2023-03-02T19:09:42.860Z,77.69
2023-03-02T19:12:16.053Z,80.66
2023-03-02T19:14:45.067Z,79.82
2023-03-02T19:17:15.647Z,82.81
2023-03-02T19:19:46.790Z,81.43
2023-03-02T19:22:16.830Z,81.75
2023-03-02T19:24:48.199Z,81.61
2023-03-02T19:27:18.017Z,76.60
2023-03-02T19:29:46.894Z,75.58
2023-03-02T19:32:20.510Z,74.55
2023-03-02T19:34:51.452Z,76.11
2023-03-02T19:37:20.212Z,77.73
2023-03-02T19:39:50.071Z,77.22
2023-03-02T19:42:19.230Z,77.76
2023-03-02T19:44:47.717Z,74.21
2023-03-02T19:47:19.550Z,73.73
2023-03-02T19:49:48.709Z,72.55
2023-03-02T19:52:17.476Z,69.92
2023-03-02T19:54:54.925Z,69.61
2023-03-02T19:57:25.601Z,70.38
2023-03-02T19:59:55.702Z,70.40
2023-03-02T20:02:28.674Z,68.35
2023-03-02T20:04:57.673Z,68.55
2023-03-02T20:07:32.446Z,67.96
2023-03-02T20:10:01.135Z,66.89
2023-03-02T20:12:31.381Z,67.19
2023-03-02T20:15:00.010Z,67.85
2023-03-02T20:17:30.579Z,71.21
2023-03-02T20:20:01.484Z,73.66
2023-03-02T20:22:31.049Z,74.97
2023-03-02T20:25:00.173Z,76.68
2023-03-02T20:27:31.336Z,80.71
2023-03-02T20:30:00.089Z,81.30
2023-03-02T20:32:30.101Z,82.42
2023-03-02T20:35:00.138Z,84.95
2023-03-02T20:37:30.300Z,85.37
2023-03-02T20:39:59.849Z,87.71
2023-03-02T20:42:31.764Z,88.04
2023-03-02T20:45:02.553Z,90.36
2023-03-02T20:47:33.059Z,91.28
2023-03-02T20:50:02.574Z,92.47
2023-03-02T20:52:33.160Z,93.76
2023-03-02T20:55:02.364Z,93.40
2023-03-02T20:57:32.508Z,94.84
2023-03-02T21:00:01.758Z,94.23
2023-03-02T21:02:32.504Z,96.38
2023-03-02T21:05:01.619Z,97.52
2023-03-02T21:07:30.843Z,96.37
2023-03-02T21:09:59.739Z,94.51
2023-03-02T21:12:28.490Z,95.33
2023-03-02T21:14:57.652Z,92.20
2023-03-02T21:17:27.414Z,93.31
2023-03-02T21:19:58.492Z,94.06
2023-03-02T21:22:29.052Z,95.48
2023-03-02T21:24:58.734Z,94.32
2023-03-02T21:27:27.395Z,94.46
2023-03-02T21:29:56.957Z,96.35
2023-03-02T21:32:26.864Z,98.70
2023-03-02T21:34:58.519Z,97.58
2023-03-02T21:37:27.480Z,96.37
2023-03-02T21:39:56.884Z,97.53
2023-03-02T21:42:25.297Z,97.83
2023-03-02T21:44:55.869Z,99.86
2023-03-02T21:47:25.470Z,98.83
2023-03-02T21:49:57.227Z,99.82
2023-03-02T21:52:28.099Z,97.90
2023-03-02T21:54:56.888Z,96.75
2023-03-02T21:57:26.722Z,98.82
2023-03-02T21:59:56.171Z,97.56
2023-03-02T22:02:25.076Z,99.07
2023-03-02T22:04:55.008Z,100.00
2023-03-02T22:07:25.481Z,100.00
2023-03-02T22:09:54.647Z,100.00
2023-03-02T22:12:24.637Z,100.00
2023-03-02T22:14:54.885Z,100.00
2023-03-02T22:17:25.000Z,100.00
2023-03-02T22:19:55.087Z,100.00
2023-03-02T22:22:30.590Z,100.00
2023-03-02T22:24:59.784Z,100.00
2023-03-02T22:27:30.550Z,100.00
2023-03-02T22:30:01.894Z,100.00
2023-03-02T22:32:32.649Z,100.00
2023-03-02T22:35:03.476Z,99.28
2023-03-02T22:37:35.973Z,99.64
2023-03-02T22:40:18.350Z,100.00
2023-03-02T22:42:47.135Z,100.00
2023-03-02T22:45:18.387Z,99.38
2023-03-02T22:47:51.941Z,100.00
2023-03-02T22:50:23.571Z,100.00
2023-03-02T22:52:55.794Z,100.00
2023-03-02T22:55:38.062Z,100.00
2023-03-02T22:58:33.176Z,100.00
2023-03-02T23:01:03.475Z,100.00
2023-03-02T23:03:40.236Z,100.00
2023-03-02T23:06:28.552Z,100.00
2023-03-02T23:09:00.796Z,100.00
2023-03-02T23:11:31.771Z,100.00
2023-03-02T23:14:04.282Z,100.00
2023-03-02T23:16:37.150Z,100.00
2023-03-02T23:19:06.654Z,100.00
2023-03-02T23:21:40.351Z,100.00
2023-03-02T23:24:11.400Z,100.00
2023-03-02T23:26:40.288Z,100.00
2023-03-02T23:29:11.178Z,100.00
2023-03-02T23:31:40.375Z,100.00
2023-03-02T23:34:09.126Z,100.00
2023-03-02T23:36:39.956Z,100.00
2023-03-02T23:39:12.080Z,100.00
2023-03-02T23:41:41.783Z,100.00
2023-03-02T23:44:10.796Z,100.00
2023-03-02T23:46:40.054Z,100.00
2023-03-02T23:49:09.550Z,100.00
2023-03-02T23:51:38.491Z,100.00
2023-03-02T23:54:07.615Z,100.00
2023-03-02T23:56:39.098Z,100.00
2023-03-02T23:59:08.240Z,100.00
